Time;durP1;ratioP1;P1;durP2;ratioP2;P2;SDS_P1;SDS_P2;PMS_P1;PMS_P2;Temp;Humidity;BMP_temperature;BMP_pressure;BME280_temperature;BME280_humidity;BME280_pressure;Samples;Min_cycle;Max_cycle;Signal;HPM_P1;HPM_P2
2022/05/26 00:04:22;;;;;;;6.47;5.57;;;10.20;99.90;;;;;;10342038;28;20201;-79
2022/05/26 00:09:43;;;;;;;6.43;5.37;;;10.10;99.90;;;;;;10330986;28;20212;-79
2022/05/26 00:15:05;;;;;;;5.87;5.10;;;10.00;99.90;;;;;;10314548;28;20519;-79
2022/05/26 00:20:26;;;;;;;6.83;5.27;;;10.00;99.90;;;;;;10328345;28;20205;-79
2022/05/26 00:25:48;;;;;;;5.27;4.47;;;10.00;99.90;;;;;;10314468;28;20273;-78
2022/05/26 00:31:09;;;;;;;4.90;4.47;;;10.00;99.90;;;;;;10314566;28;20300;-78
2022/05/26 00:36:39;;;;;;;5.03;4.50;;;10.00;99.90;;;;;;10340747;28;20236;-78
2022/05/26 00:42:03;;;;;;;5.33;4.80;;;10.00;99.90;;;;;;10340755;28;20418;-79
2022/05/26 00:47:28;;;;;;;5.67;4.90;;;9.90;99.90;;;;;;10326895;28;20279;-79
2022/05/26 00:52:54;;;;;;;6.83;5.10;;;9.80;99.90;;;;;;10341914;28;20434;-79
2022/05/26 00:58:31;;;;;;;5.97;4.90;;;9.70;99.90;;;;;;10348987;28;20483;-79
2022/05/26 01:04:10;;;;;;;5.17;4.37;;;9.70;99.90;;;;;;10348121;28;20208;-79
2022/05/26 01:09:31;;;;;;;7.03;5.57;;;9.60;99.90;;;;;;10322612;28;20208;-79
2022/05/26 01:14:58;;;;;;;10.67;5.83;;;9.60;99.90;;;;;;10307724;28;20303;-79
2022/05/26 01:20:28;;;;;;;7.17;5.07;;;9.60;99.90;;;;;;10323823;28;20207;-79
2022/05/26 01:26:10;;;;;;;5.33;4.80;;;9.90;99.90;;;;;;10321339;28;20196;-79
2022/05/26 01:31:38;;;;;;;4.53;3.93;;;10.10;99.90;;;;;;10322122;28;20224;-79
2022/05/26 01:37:02;;;;;;;4.20;3.80;;;10.30;99.90;;;;;;10333273;28;20236;-79
2022/05/26 01:42:58;;;;;;;4.10;3.67;;;10.50;99.90;;;;;;10361071;28;20201;-79
2022/05/26 01:48:51;;;;;;;4.87;3.90;;;10.60;99.90;;;;;;10360304;28;20207;-79
2022/05/26 01:54:19;;;;;;;4.90;4.33;;;10.60;99.90;;;;;;10347049;28;20234;-79
2022/05/26 01:59:55;;;;;;;4.43;4.03;;;10.60;99.90;;;;;;10359944;28;20498;-79
2022/05/26 02:05:23;;;;;;;4.57;4.10;;;10.50;99.90;;;;;;10352742;28;20236;-79
2022/05/26 02:10:58;;;;;;;4.70;4.30;;;10.50;99.90;;;;;;10306011;28;20201;-79
2022/05/26 02:16:41;;;;;;;4.00;3.60;;;10.50;99.90;;;;;;10333077;28;20202;-79
2022/05/26 02:22:28;;;;;;;3.97;3.57;;;10.40;99.90;;;;;;10318887;28;20569;-79
2022/05/26 02:27:57;;;;;;;6.43;3.87;;;10.50;99.90;;;;;;10305196;28;20204;-79
2022/05/26 02:33:19;;;;;;;4.00;3.70;;;10.50;99.90;;;;;;10319885;28;20247;-78
2022/05/26 02:38:40;;;;;;;4.23;3.80;;;10.60;99.90;;;;;;10344514;28;20241;-78
2022/05/26 02:44:03;;;;;;;6.40;4.20;;;10.50;99.90;;;;;;10358292;28;20233;-78
2022/05/26 02:49:58;;;;;;;6.60;4.40;;;10.60;99.90;;;;;;10344574;28;20262;-78
2022/05/26 02:55:28;;;;;;;4.57;4.03;;;10.60;99.90;;;;;;10359193;28;20224;-79
2022/05/26 03:01:02;;;;;;;4.77;4.13;;;10.50;99.90;;;;;;10344207;28;20285;-79
2022/05/26 03:06:33;;;;;;;5.70;4.37;;;10.50;99.90;;;;;;10314991;28;20430;-79
2022/05/26 03:11:56;;;;;;;4.90;4.17;;;10.60;99.90;;;;;;10303768;28;20224;-79
2022/05/26 03:17:17;;;;;;;4.00;3.60;;;10.60;99.90;;;;;;10315775;28;20440;-79
2022/05/26 03:22:38;;;;;;;5.87;3.87;;;10.60;99.90;;;;;;10319192;28;20272;-79
2022/05/26 03:28:00;;;;;;;4.07;3.43;;;10.60;99.90;;;;;;10316663;28;20224;-79
2022/05/26 03:33:21;;;;;;;4.00;3.60;;;10.60;99.90;;;;;;10331872;28;20227;-79
2022/05/26 03:44:24;;;;;;;4.67;3.90;;;10.70;99.90;;;;;;10355764;28;20204;-79
2022/05/26 03:49:45;;;;;;;4.20;3.80;;;10.70;99.90;;;;;;10355871;28;20216;-79
2022/05/26 03:55:08;;;;;;;5.30;4.60;;;10.80;99.90;;;;;;10342022;28;20523;-78
2022/05/26 04:00:30;;;;;;;5.67;4.60;;;10.90;99.90;;;;;;10341765;28;20206;-79
2022/05/26 04:05:51;;;;;;;6.83;5.00;;;10.90;99.90;;;;;;10345517;28;20277;-79
2022/05/26 04:11:12;;;;;;;11.07;5.67;;;10.90;99.90;;;;;;10314796;28;20461;-79
2022/05/26 04:16:33;;;;;;;7.93;5.97;;;11.00;99.90;;;;;;10300701;28;20230;-79
2022/05/26 04:27:35;;;;;;;7.70;5.67;;;11.10;99.90;;;;;;10313715;28;20204;-79
2022/05/26 04:32:56;;;;;;;6.87;4.43;;;11.10;99.90;;;;;;10340374;28;20227;-79
2022/05/26 04:38:18;;;;;;;5.13;4.27;;;11.20;99.90;;;;;;10354027;28;20244;-78
2022/05/26 04:43:40;;;;;;;8.57;4.60;;;11.20;99.90;;;;;;10326833;28;20279;-79
2022/05/26 04:49:01;;;;;;;5.47;4.73;;;11.30;99.90;;;;;;10340357;28;20220;-80
2022/05/26 04:54:25;;;;;;;5.80;4.63;;;11.60;99.90;;;;;;10340429;28;20236;-79
2022/05/26 04:59:46;;;;;;;6.07;4.53;;;11.80;99.90;;;;;;10353525;28;20287;-79
2022/05/26 05:05:09;;;;;;;6.37;5.10;;;11.90;99.90;;;;;;10335055;28;20210;-79
2022/05/26 05:10:30;;;;;;;6.07;4.50;;;12.00;99.90;;;;;;10313499;28;20188;-79
2022/05/26 05:15:55;;;;;;;4.73;4.10;;;12.00;99.90;;;;;;10313431;28;20248;-79
2022/05/26 05:21:23;;;;;;;5.70;4.07;;;12.20;99.90;;;;;;10313128;28;20275;-79
2022/05/26 05:26:50;;;;;;;5.80;4.57;;;12.40;99.90;;;;;;10312886;28;20205;-79
2022/05/26 05:32:25;;;;;;;6.05;4.55;;;12.50;99.90;;;;;;10319339;28;20392;-79
2022/05/26 05:37:47;;;;;;;5.13;4.30;;;12.70;99.90;;;;;;10352881;28;20248;-79
2022/05/26 05:43:08;;;;;;;6.40;4.72;;;12.80;99.90;;;;;;10345652;28;20204;-79
2022/05/26 05:48:29;;;;;;;4.60;4.15;;;12.90;99.90;;;;;;10360719;28;20204;-79
2022/05/26 05:53:51;;;;;;;5.22;4.55;;;12.80;99.90;;;;;;10360358;28;20245;-79
2022/05/26 05:59:12;;;;;;;11.43;8.48;;;12.80;99.90;;;;;;10359908;28;20427;-79
2022/05/26 06:04:41;;;;;;;14.50;8.43;;;13.00;99.90;;;;;;10360385;28;20395;-79
2022/05/26 06:10:03;;;;;;;15.25;9.02;;;13.20;99.90;;;;;;10308066;28;20231;-79
2022/05/26 06:15:25;;;;;;;7.25;4.90;;;13.40;99.90;;;;;;10319995;28;20218;-79
2022/05/26 06:20:46;;;;;;;5.05;3.40;;;13.60;88.90;;;;;;10305108;28;20209;-79
2022/05/26 06:26:07;;;;;;;6.80;3.78;;;13.70;57.60;;;;;;10319039;28;20191;-79
2022/05/26 06:31:29;;;;;;;5.90;3.38;;;13.70;59.70;;;;;;10305442;28;20226;-79
2022/05/26 06:42:29;;;;;;;4.30;3.20;;;13.70;38.80;;;;;;10358463;28;20202;-79
2022/05/26 06:47:54;;;;;;;4.05;2.88;;;13.70;42.80;;;;;;10344310;28;20203;-79
2022/05/26 06:53:18;;;;;;;4.72;3.38;;;13.60;53.60;;;;;;10330219;28;20304;-78
2022/05/26 06:58:40;;;;;;;7.55;3.67;;;14.00;41.50;;;;;;10357585;28;20463;-79
2022/05/26 07:04:04;;;;;;;5.68;3.00;;;14.50;32.40;;;;;;10344079;28;20555;-79
2022/05/26 07:09:26;;;;;;;3.78;2.80;;;15.10;1.00;;;;;;10303956;28;20526;-79
2022/05/26 07:14:47;;;;;;;8.60;3.28;;;16.20;99.90;;;;;;10316588;28;20454;-79
2022/05/26 07:20:09;;;;;;;4.45;2.50;;;17.10;99.90;;;;;;10316662;28;20387;-79
2022/05/26 07:25:30;;;;;;;5.65;2.40;;;17.70;99.90;;;;;;10316442;28;20242;-79
2022/05/26 07:30:52;;;;;;;5.18;2.40;;;18.20;99.90;;;;;;10315101;28;20236;-83
2022/05/26 07:42:07;;;;;;;3.55;2.00;;;18.40;99.90;;;;;;10351117;28;20190;-84
2022/05/26 07:47:29;;;;;;;2.92;2.00;;;17.60;99.90;;;;;;10352113;28;20231;-83
2022/05/26 07:52:52;;;;;;;4.07;2.33;;;17.00;99.90;;;;;;10337409;28;20231;-84
2022/05/26 07:58:14;;;;;;;3.92;1.80;;;16.50;99.90;;;;;;10324610;28;20202;-87
2022/05/26 08:03:37;;;;;;;3.20;2.25;;;16.20;1.00;;;;;;10298895;28;20208;-81
2022/05/26 08:08:58;;;;;;;3.28;1.77;;;15.90;1.00;;;;;;10336035;28;20261;-82
2022/05/26 08:14:19;;;;;;;3.78;2.15;;;16.00;1.00;;;;;;10351579;28;20231;-82
2022/05/26 08:19:41;;;;;;;2.63;1.52;;;16.10;1.00;;;;;;10336053;28;20204;-80
2022/05/26 08:25:03;;;;;;;5.20;1.75;;;16.10;1.00;;;;;;10322375;28;20223;-83
2022/05/26 08:30:24;;;;;;;4.85;2.00;;;16.50;18.80;;;;;;10336590;28;20197;-83
2022/05/26 08:35:45;;;;;;;5.00;2.22;;;16.40;36.70;;;;;;10346578;28;20244;-83
2022/05/26 08:41:11;;;;;;;3.03;1.50;;;16.70;49.20;;;;;;10335223;28;20519;-83
2022/05/26 08:46:48;;;;;;;4.55;1.60;;;16.50;48.00;;;;;;10322208;28;20434;-81
2022/05/26 08:52:52;;;;;;;4.13;1.60;;;16.50;1.00;;;;;;10325707;28;20427;-83
2022/05/26 08:58:39;;;;;;;3.25;1.50;;;16.70;1.00;;;;;;10301895;28;20275;-84
2022/05/26 09:04:01;;;;;;;6.30;1.65;;;17.10;43.10;;;;;;10295284;28;20225;-86
2022/05/26 09:15:07;;;;;;;6.13;1.30;;;16.50;1.00;;;;;;10330075;28;20255;-82
2022/05/26 09:20:39;;;;;;;4.93;1.10;;;15.60;1.00;;;;;;10326854;28;20195;-79
2022/05/26 09:26:11;;;;;;;1.23;1.02;;;15.40;1.00;;;;;;10352300;28;20206;-79
2022/05/26 09:31:35;;;;;;;2.95;1.20;;;15.30;1.00;;;;;;10339432;28;20225;-80
2022/05/26 09:37:01;;;;;;;2.33;1.20;;;15.50;10.40;;;;;;10341200;28;20241;-79
2022/05/26 09:42:25;;;;;;;1.85;1.38;;;15.60;14.50;;;;;;10357173;28;20243;-81
2022/05/26 09:47:54;;;;;;;6.20;1.48;;;16.00;1.30;;;;;;10340757;28;20558;-82
2022/05/26 09:53:29;;;;;;;4.15;1.60;;;16.10;1.00;;;;;;10301653;28;20252;-83
2022/05/26 09:58:50;;;;;;;4.30;1.38;;;15.90;1.00;;;;;;10309780;28;20197;-83
2022/05/26 10:05:10;;;;;;;4.80;1.50;;;15.50;1.00;;;;;;10312365;28;20436;-83
2022/05/26 10:10:57;;;;;;;4.28;1.90;;;15.40;1.00;;;;;;10149705;29;20232;-85
2022/05/26 10:16:40;;;;;;;3.92;1.80;;;15.20;8.10;;;;;;10149909;29;20257;-80
2022/05/26 10:22:38;;;;;;;6.35;2.05;;;15.20;10.20;;;;;;10177970;29;20237;-84
2022/05/26 10:28:09;;;;;;;3.95;1.90;;;15.30;12.90;;;;;;10202006;29;20212;-81
2022/05/26 10:34:00;;;;;;;4.78;1.17;;;15.30;1.00;;;;;;10164814;29;20242;-79
2022/05/26 10:39:52;;;;;;;1.90;1.10;;;14.70;1.00;;;;;;10176140;29;20307;-82
2022/05/26 10:45:25;;;;;;;1.57;1.13;;;13.90;11.50;;;;;;10230692;28;20241;-87
2022/05/26 10:50:47;;;;;;;3.88;1.02;;;13.90;99.90;;;;;;10334948;28;20288;-80
2022/05/26 10:56:21;;;;;;;1.52;1.10;;;14.00;78.80;;;;;;10329639;28;20237;-83
2022/05/26 11:01:51;;;;;;;4.97;1.20;;;14.10;55.80;;;;;;10324744;28;20205;-80
2022/05/26 11:07:43;;;;;;;1.17;1.00;;;14.20;63.50;;;;;;10338431;28;20204;-81
2022/05/26 11:13:13;;;;;;;7.05;4.80;;;14.90;96.30;;;;;;10337855;28;20250;-84
2022/05/26 11:18:41;;;;;;;3.72;1.50;;;15.40;65.80;;;;;;10337336;28;20234;-80
2022/05/26 11:24:07;;;;;;;4.03;1.30;;;16.20;32.70;;;;;;10351726;28;20482;-87
2022/05/26 11:29:39;;;;;;;4.22;1.55;;;16.30;1.00;;;;;;10327908;28;20236;-81
2022/05/26 11:41:06;;;;;;;3.53;1.33;;;16.70;1.00;;;;;;10325159;28;20718;-84
2022/05/26 11:47:32;;;;;;;1.52;0.90;;;16.40;1.00;;;;;;10336189;28;20210;-85
2022/05/26 11:52:53;;;;;;;6.25;1.25;;;16.10;1.00;;;;;;10237243;28;20316;-83
2022/05/26 11:58:36;;;;;;;2.92;1.10;;;16.40;1.00;;;;;;10222230;29;20216;-81
2022/05/26 12:03:57;;;;;;;7.60;1.40;;;17.00;1.00;;;;;;10246049;29;20206;-78
2022/05/26 12:09:27;;;;;;;4.45;1.25;;;17.40;1.00;;;;;;10236602;28;20384;-78
2022/05/26 12:14:52;;;;;;;3.08;1.50;;;17.80;1.00;;;;;;10252179;28;20242;-81
2022/05/26 12:20:14;;;;;;;4.00;1.17;;;17.90;1.00;;;;;;10232227;28;20226;-80
2022/05/26 12:25:37;;;;;;;6.32;2.47;;;18.00;1.00;;;;;;10262815;28;20284;-81
2022/05/26 12:30:58;;;;;;;4.80;1.38;;;17.30;1.00;;;;;;10337125;28;20451;-87
2022/05/26 12:36:31;;;;;;;5.50;1.50;;;17.10;1.00;;;;;;10340126;28;20252;-79
2022/05/26 12:42:25;;;;;;;7.22;1.95;;;17.40;1.00;;;;;;10308083;28;20220;-82
2022/05/26 12:47:56;;;;;;;3.85;1.13;;;17.80;6.40;;;;;;10314458;28;20265;-82
2022/05/26 12:53:27;;;;;;;2.60;1.20;;;18.20;14.50;;;;;;10323078;28;20229;-90
2022/05/26 12:58:56;;;;;;;3.40;1.55;;;18.40;4.90;;;;;;10315451;28;20814;-81
2022/05/26 13:04:34;;;;;;;3.88;1.20;;;18.00;1.00;;;;;;10331381;28;20519;-86
2022/05/26 13:09:55;;;;;;;4.68;1.65;;;18.00;1.00;;;;;;10330918;28;20243;-83
2022/05/26 13:15:23;;;;;;;4.45;1.25;;;18.10;1.00;;;;;;10356344;28;20228;-85
2022/05/26 13:20:44;;;;;;;12.43;1.83;;;18.20;1.20;;;;;;10317007;28;20230;-84
2022/05/26 13:26:22;;;;;;;3.00;1.38;;;18.40;1.00;;;;;;10328424;28;20216;-82
2022/05/26 13:37:29;;;;;;;5.25;1.95;;;18.20;1.00;;;;;;10346344;28;20293;-80
2022/05/26 13:42:52;;;;;;;6.65;1.50;;;18.00;1.00;;;;;;10355501;28;20209;-80
2022/05/26 13:48:36;;;;;;;4.07;1.73;;;18.10;1.00;;;;;;10350584;28;20204;-80
2022/05/26 13:54:20;;;;;;;4.32;1.30;;;18.20;1.00;;;;;;10345755;28;20270;-84
2022/05/26 13:59:45;;;;;;;4.63;1.60;;;18.50;1.00;;;;;;10350902;28;20260;-79
2022/05/26 14:05:12;;;;;;;6.63;1.98;;;18.50;1.00;;;;;;10342177;28;20202;-80
2022/05/26 14:10:37;;;;;;;23.08;2.05;;;18.30;1.00;;;;;;10339423;28;20272;-81
2022/05/26 14:16:20;;;;;;;11.95;2.55;;;18.30;1.00;;;;;;10353115;28;20257;-81
2022/05/26 14:21:47;;;;;;;4.25;1.10;;;18.10;1.00;;;;;;10344915;28;20271;-81
2022/05/26 14:27:11;;;;;;;5.32;1.92;;;17.90;1.00;;;;;;10319526;28;20204;-80
2022/05/26 14:32:35;;;;;;;8.82;2.25;;;17.70;1.00;;;;;;10339066;28;20203;-84
2022/05/26 14:37:56;;;;;;;4.18;1.20;;;17.50;1.00;;;;;;10328975;28;20233;-81
2022/05/26 14:43:31;;;;;;;3.15;1.00;;;17.30;1.00;;;;;;10310605;28;20388;-81
2022/05/26 14:48:52;;;;;;;5.03;1.25;;;17.10;1.00;;;;;;10325111;28;20214;-81
2022/05/26 14:59:56;;;;;;;9.18;1.60;;;16.90;9.40;;;;;;10352543;28;20188;-81
2022/05/26 15:05:18;;;;;;;5.97;1.98;;;16.90;12.60;;;;;;10329514;28;20207;-80
2022/05/26 15:10:39;;;;;;;4.63;1.65;;;17.00;10.00;;;;;;10356551;28;20544;-79
2022/05/26 15:16:01;;;;;;;12.50;1.48;;;16.90;9.20;;;;;;10356918;28;20230;-79
2022/05/26 15:21:22;;;;;;;5.65;1.70;;;16.90;7.10;;;;;;10356035;28;20227;-79
2022/05/26 15:26:43;;;;;;;16.20;1.80;;;16.80;8.10;;;;;;10340350;28;20201;-80
2022/05/26 15:32:09;;;;;;;3.40;1.30;;;16.80;6.60;;;;;;10334349;28;20201;-80
2022/05/26 15:37:31;;;;;;;8.50;1.77;;;16.70;6.90;;;;;;10324086;28;20614;-80
2022/05/26 15:42:53;;;;;;;5.22;1.33;;;16.60;9.70;;;;;;10356172;28;20203;-80
2022/05/26 15:48:15;;;;;;;8.73;1.50;;;16.60;7.80;;;;;;10342117;28;20212;-80
2022/05/26 15:53:36;;;;;;;17.23;2.08;;;16.50;5.70;;;;;;10342045;28;20223;-80
2022/05/26 15:58:59;;;;;;;9.55;1.40;;;16.40;7.80;;;;;;10354805;28;20200;-80
2022/05/26 16:04:21;;;;;;;4.90;1.27;;;16.30;10.50;;;;;;10355338;28;20243;-79
2022/05/26 16:09:42;;;;;;;4.00;2.25;;;16.40;7.00;;;;;;10341055;28;20226;-80
2022/05/26 16:15:05;;;;;;;3.47;1.45;;;16.30;7.50;;;;;;10315202;28;20232;-79
2022/05/26 16:20:26;;;;;;;5.43;1.20;;;16.10;11.80;;;;;;10320460;28;20380;-80
2022/05/26 16:25:57;;;;;;;9.85;1.45;;;16.10;14.00;;;;;;10334496;28;20495;-81
2022/05/26 16:31:17;;;;;;;5.20;1.85;;;16.00;11.60;;;;;;10340971;28;20224;-80
2022/05/26 16:36:43;;;;;;;5.78;1.63;;;15.90;1.10;;;;;;10335238;28;20426;-81
2022/05/26 16:42:06;;;;;;;4.95;1.30;;;15.90;3.20;;;;;;10354385;28;20267;-81
2022/05/26 16:47:27;;;;;;;8.05;1.38;;;15.80;7.00;;;;;;10353352;28;20205;-80
2022/05/26 16:52:49;;;;;;;5.88;1.42;;;15.70;4.40;;;;;;10340627;28;20381;-80
2022/05/26 16:58:16;;;;;;;3.58;1.58;;;15.70;7.40;;;;;;10354295;28;20202;-80
2022/05/26 17:03:38;;;;;;;4.45;1.63;;;15.60;7.10;;;;;;10341584;28;20282;-81
2022/05/26 17:09:02;;;;;;;5.07;1.42;;;15.60;7.80;;;;;;10339864;28;20200;-80
2022/05/26 17:25:43;;;;;;;5.65;1.80;;;15.20;13.10;;;;;;10313233;28;20448;-81
2022/05/26 17:31:05;;;;;;;7.00;1.67;;;15.10;12.80;;;;;;10333716;28;20193;-79
2022/05/26 17:36:27;;;;;;;6.88;1.30;;;15.10;15.00;;;;;;10321003;28;20262;-80
2022/05/26 17:41:49;;;;;;;4.32;1.25;;;15.10;13.70;;;;;;10361049;28;20187;-81
2022/05/26 17:47:11;;;;;;;4.85;1.50;;;15.10;10.30;;;;;;10360711;28;20206;-81
2022/05/26 17:52:33;;;;;;;4.07;1.35;;;14.90;12.40;;;;;;10360631;28;20203;-79
2022/05/26 17:57:55;;;;;;;5.53;1.33;;;14.80;12.80;;;;;;10333038;28;20213;-80
2022/05/26 18:03:17;;;;;;;4.93;1.50;;;14.80;10.90;;;;;;10358955;28;20282;-81
2022/05/26 18:08:41;;;;;;;4.95;1.30;;;14.70;11.00;;;;;;10346196;28;20219;-80
2022/05/26 18:14:04;;;;;;;6.43;1.70;;;14.60;11.90;;;;;;10315397;28;20222;-79
2022/05/26 18:19:29;;;;;;;4.50;1.35;;;14.50;14.00;;;;;;10359504;28;20199;-80
2022/05/26 18:24:50;;;;;;;3.30;1.27;;;14.40;12.30;;;;;;10315229;28;20211;-79
2022/05/26 18:30:12;;;;;;;3.97;1.33;;;14.30;13.00;;;;;;10304724;28;20250;-79
2022/05/26 18:35:37;;;;;;;4.60;1.83;;;14.20;13.50;;;;;;10325904;28;20251;-80
2022/05/26 18:40:59;;;;;;;5.90;1.30;;;14.00;14.90;;;;;;10344334;28;20231;-79
2022/05/26 18:46:22;;;;;;;4.97;1.60;;;13.90;13.00;;;;;;10357647;28;20380;-79
2022/05/26 18:51:44;;;;;;;4.17;1.03;;;13.90;14.00;;;;;;10344750;28;20209;-80
2022/05/26 18:57:05;;;;;;;3.80;1.30;;;13.80;15.00;;;;;;10357979;28;20251;-79
2022/05/26 19:02:32;;;;;;;2.83;1.45;;;13.70;16.00;;;;;;10357533;28;20233;-80
2022/05/26 19:07:56;;;;;;;4.25;1.40;;;13.60;16.20;;;;;;10334132;28;20201;-79
2022/05/26 19:13:23;;;;;;;2.90;1.13;;;13.50;1.90;;;;;;10317289;28;20201;-80
2022/05/26 19:18:45;;;;;;;5.97;1.80;;;13.40;1.00;;;;;;10342292;28;20200;-79
2022/05/26 19:24:14;;;;;;;8.32;1.30;;;13.40;99.90;;;;;;10329853;28;20202;-79
2022/05/26 19:29:39;;;;;;;10.80;1.53;;;13.30;1.00;;;;;;10343030;28;20209;-80
2022/05/26 19:35:00;;;;;;;6.38;1.48;;;13.30;99.90;;;;;;10342380;28;20224;-80
2022/05/26 19:40:21;;;;;;;3.08;0.98;;;13.30;1.00;;;;;;10308679;28;20196;-80
2022/05/26 19:45:42;;;;;;;3.95;1.63;;;13.10;99.90;;;;;;10316241;28;20197;-80
2022/05/26 19:51:03;;;;;;;5.22;1.10;;;13.10;1.00;;;;;;10354122;28;20209;-80
2022/05/26 19:56:26;;;;;;;4.85;1.67;;;13.10;1.00;;;;;;10355361;28;20466;-80
2022/05/26 20:01:47;;;;;;;5.93;2.13;;;13.10;1.00;;;;;;10355101;28;20193;-79
2022/05/26 20:07:08;;;;;;;7.43;1.40;;;13.00;20.60;;;;;;10316089;28;20195;-79
2022/05/26 20:12:30;;;;;;;4.35;1.30;;;12.90;99.90;;;;;;10314986;28;20369;-79
2022/05/26 20:17:53;;;;;;;4.90;1.30;;;12.90;99.90;;;;;;10315015;28;20225;-80
2022/05/26 20:23:20;;;;;;;4.30;1.33;;;12.80;99.90;;;;;;10314561;28;20490;-80
2022/05/26 20:34:21;;;;;;;4.60;1.30;;;12.70;99.90;;;;;;10354688;28;20261;-79
2022/05/26 20:39:43;;;;;;;6.93;1.40;;;12.60;99.90;;;;;;10300217;28;20537;-80
2022/05/26 20:45:05;;;;;;;10.60;1.73;;;12.60;99.90;;;;;;10314146;28;20207;-80
2022/05/26 20:50:27;;;;;;;3.55;1.13;;;12.50;99.90;;;;;;10348697;28;20387;-79
2022/05/26 20:55:52;;;;;;;3.30;1.33;;;12.50;99.90;;;;;;10314111;28;20233;-79
2022/05/26 21:01:14;;;;;;;9.23;1.60;;;12.40;99.90;;;;;;10300285;28;20520;-80
2022/05/26 21:06:35;;;;;;;5.60;1.37;;;12.30;99.90;;;;;;10313955;28;20215;-80
2022/05/26 21:11:56;;;;;;;5.63;1.50;;;12.30;99.90;;;;;;10318756;28;20193;-79
2022/05/26 21:17:19;;;;;;;6.13;1.20;;;12.30;99.90;;;;;;10322618;28;20229;-80
2022/05/26 21:22:40;;;;;;;5.63;1.30;;;12.20;99.90;;;;;;10308211;28;20198;-79
2022/05/26 21:28:03;;;;;;;5.82;1.17;;;12.20;1.00;;;;;;10307273;28;20274;-80
2022/05/26 21:33:24;;;;;;;3.15;1.45;;;12.20;1.00;;;;;;10359888;28;20208;-80
2022/05/26 21:38:46;;;;;;;8.00;2.00;;;12.10;99.90;;;;;;10347149;28;20244;-81
2022/05/26 21:44:08;;;;;;;7.88;1.75;;;12.10;99.90;;;;;;10347071;28;20196;-80
2022/05/26 21:49:29;;;;;;;3.17;1.10;;;12.20;99.90;;;;;;10346708;28;20213;-81
2022/05/26 21:54:53;;;;;;;4.50;1.15;;;12.20;99.90;;;;;;10360419;28;20224;-80
2022/05/26 22:00:17;;;;;;;3.55;1.13;;;12.20;99.90;;;;;;10346043;28;20196;-79
2022/05/26 22:11:18;;;;;;;8.55;1.40;;;12.20;99.90;;;;;;10342597;28;20530;-79
2022/05/26 22:16:48;;;;;;;2.70;1.10;;;12.10;99.90;;;;;;10319750;28;20268;-79
2022/05/26 22:22:22;;;;;;;4.63;1.20;;;12.10;99.90;;;;;;10318427;28;20246;-79
2022/05/26 22:27:44;;;;;;;4.27;1.00;;;12.00;99.90;;;;;;10319108;28;20490;-78
2022/05/26 22:33:06;;;;;;;4.47;1.10;;;12.00;99.90;;;;;;10333764;28;20489;-79
2022/05/26 22:38:28;;;;;;;3.60;1.23;;;12.00;99.90;;;;;;10335515;28;20248;-81
2022/05/26 22:43:52;;;;;;;6.05;1.17;;;12.00;99.90;;;;;;10345047;28;20235;-80
2022/05/26 22:49:13;;;;;;;4.57;1.52;;;12.00;99.90;;;;;;10344454;28;20205;-79
2022/05/26 22:54:34;;;;;;;6.03;1.45;;;12.00;99.90;;;;;;10358046;28;20233;-79
2022/05/26 22:59:57;;;;;;;6.28;1.40;;;12.10;99.90;;;;;;10329582;28;20197;-79
2022/05/26 23:05:20;;;;;;;5.53;1.23;;;12.10;99.90;;;;;;10349652;28;20209;-79
2022/05/26 23:10:44;;;;;;;4.70;1.50;;;12.10;99.90;;;;;;10357498;28;20226;-79
2022/05/26 23:16:07;;;;;;;5.20;1.52;;;12.20;99.90;;;;;;10343689;28;20323;-80
2022/05/26 23:21:29;;;;;;;4.03;1.30;;;12.30;99.90;;;;;;10357091;28;20384;-79
2022/05/26 23:26:50;;;;;;;4.80;0.90;;;12.20;99.90;;;;;;10357292;28;20213;-80
2022/05/26 23:32:11;;;;;;;3.28;1.35;;;12.20;1.00;;;;;;10311959;28;20696;-79
2022/05/26 23:37:33;;;;;;;4.13;1.10;;;12.20;1.00;;;;;;10339613;28;20339;-79
2022/05/26 23:48:36;;;;;;;3.50;1.02;;;12.20;1.00;;;;;;10355999;28;20321;-79
2022/05/26 23:53:57;;;;;;;4.73;1.00;;;12.20;1.00;;;;;;10355688;28;20523;-79
2022/05/26 23:59:18;;;;;;;4.47;1.20;;;12.10;1.00;;;;;;10356044;28;20435;-79
